sensor_id;sensor_type;location;lat;lon;timestamp;pressure;altitude;pressure_sealevel;temperature;humidity
33163;BME280;29282;45.656;11.302;2023-04-08T00:02:06;98309.91;;;18.54;45.00
33163;BME280;29282;45.656;11.302;2023-04-08T00:04:31;98309.09;;;18.54;45.06
33163;BME280;29282;45.656;11.302;2023-04-08T00:06:57;98317.31;;;18.54;44.94
33163;BME280;29282;45.656;11.302;2023-04-08T00:09:22;98305.53;;;18.53;44.97
33163;BME280;29282;45.656;11.302;2023-04-08T00:11:48;98303.16;;;18.52;45.01
33163;BME280;29282;45.656;11.302;2023-04-08T00:14:13;98311.38;;;18.52;44.89
33163;BME280;29282;45.656;11.302;2023-04-08T00:16:39;98305.41;;;18.50;45.00
33163;BME280;29282;45.656;11.302;2023-04-08T00:19:04;98307.03;;;18.51;44.71
33163;BME280;29282;45.656;11.302;2023-04-08T00:21:31;98313.19;;;18.48;45.05
33163;BME280;29282;45.656;11.302;2023-04-08T00:23:56;98307.69;;;18.48;44.86
33163;BME280;29282;45.656;11.302;2023-04-08T00:26:22;98310.44;;;18.48;44.91
33163;BME280;29282;45.656;11.302;2023-04-08T00:28:48;98308.03;;;18.46;44.97
33163;BME280;29282;45.656;11.302;2023-04-08T00:31:13;98312.72;;;18.46;44.86
33163;BME280;29282;45.656;11.302;2023-04-08T00:33:39;98318.19;;;18.46;44.82
33163;BME280;29282;45.656;11.302;2023-04-08T00:36:04;98312.72;;;18.46;44.92
33163;BME280;29282;45.656;11.302;2023-04-08T00:38:30;98313.84;;;18.45;44.97
33163;BME280;29282;45.656;11.302;2023-04-08T00:40:55;98316.59;;;18.45;44.95
33163;BME280;29282;45.656;11.302;2023-04-08T00:43:22;98325.94;;;18.44;44.92
33163;BME280;29282;45.656;11.302;2023-04-08T00:45:47;98325.16;;;18.43;44.89
33163;BME280;29282;45.656;11.302;2023-04-08T00:48:13;98318.06;;;18.42;44.77
33163;BME280;29282;45.656;11.302;2023-04-08T00:50:39;98326.28;;;18.42;44.96
33163;BME280;29282;45.656;11.302;2023-04-08T00:53:04;98329.03;;;18.42;44.80
33163;BME280;29282;45.656;11.302;2023-04-08T00:55:30;98324.34;;;18.43;44.75
33163;BME280;29282;45.656;11.302;2023-04-08T00:57:56;98326.59;;;18.41;44.87
33163;BME280;29282;45.656;11.302;2023-04-08T01:00:22;98327.44;;;18.41;44.97
33163;BME280;29282;45.656;11.302;2023-04-08T01:05:55;98325.00;;;18.40;44.81
33163;BME280;29282;45.656;11.302;2023-04-08T01:08:25;98332.09;;;18.41;44.61
33163;BME280;29282;45.656;11.302;2023-04-08T01:10:57;98334.03;;;18.40;44.64
33163;BME280;29282;45.656;11.302;2023-04-08T01:13:25;98331.78;;;18.42;44.74
33163;BME280;29282;45.656;11.302;2023-04-08T01:15:54;98336.91;;;18.44;44.43
33163;BME280;29282;45.656;11.302;2023-04-08T01:18:20;98335.31;;;18.43;44.59
33163;BME280;29282;45.656;11.302;2023-04-08T01:20:47;98331.44;;;18.44;44.53
33163;BME280;29282;45.656;11.302;2023-04-08T01:23:31;98333.06;;;18.45;44.44
33163;BME280;29282;45.656;11.302;2023-04-08T01:26:01;98333.84;;;18.45;44.51
33163;BME280;29282;45.656;11.302;2023-04-08T01:28:28;98329.16;;;18.46;44.44
33163;BME280;29282;45.656;11.302;2023-04-08T01:30:57;98331.91;;;18.46;44.45
33163;BME280;29282;45.656;11.302;2023-04-08T01:33:24;98328.81;;;18.47;44.41
33163;BME280;29282;45.656;11.302;2023-04-08T01:35:54;98329.66;;;18.48;44.25
33163;BME280;29282;45.656;11.302;2023-04-08T01:38:22;98319.78;;;18.47;44.17
33163;BME280;29282;45.656;11.302;2023-04-08T01:40:50;98328.03;;;18.47;44.31
33163;BME280;29282;45.656;11.302;2023-04-08T01:43:17;98318.19;;;18.46;44.24
33163;BME280;29282;45.656;11.302;2023-04-08T01:45:44;98327.22;;;18.46;44.33
33163;BME280;29282;45.656;11.302;2023-04-08T01:48:12;98329.97;;;18.46;44.15
33163;BME280;29282;45.656;11.302;2023-04-08T01:50:40;98329.97;;;18.46;44.21
33163;BME280;29282;45.656;11.302;2023-04-08T01:53:09;98331.91;;;18.46;44.09
33163;BME280;29282;45.656;11.302;2023-04-08T01:55:36;98327.22;;;18.46;44.21
33163;BME280;29282;45.656;11.302;2023-04-08T01:58:04;98332.72;;;18.46;44.13
33163;BME280;29282;45.656;11.302;2023-04-08T02:00:32;98333.06;;;18.45;44.10
33163;BME280;29282;45.656;11.302;2023-04-08T02:03:00;98332.25;;;18.44;44.14
33163;BME280;29282;45.656;11.302;2023-04-08T02:05:27;98330.31;;;18.45;44.12
33163;BME280;29282;45.656;11.302;2023-04-08T02:07:52;98333.84;;;18.45;44.00
33163;BME280;29282;45.656;11.302;2023-04-08T02:10:18;98333.06;;;18.45;44.04
33163;BME280;29282;45.656;11.302;2023-04-08T02:12:43;98330.31;;;18.45;44.17
33163;BME280;29282;45.656;11.302;2023-04-08T02:15:11;98328.03;;;18.47;44.17
33163;BME280;29282;45.656;11.302;2023-04-08T02:17:49;98329.97;;;18.46;44.02
33163;BME280;29282;45.656;11.302;2023-04-08T02:20:26;98329.66;;;18.48;44.09
33163;BME280;29282;45.656;11.302;2023-04-08T02:23:03;98332.84;;;18.50;43.95
33163;BME280;29282;45.656;11.302;2023-04-08T02:25:33;98327.69;;;18.48;44.24
33163;BME280;29282;45.656;11.302;2023-04-08T02:28:01;98329.66;;;18.48;43.97
33163;BME280;29282;45.656;11.302;2023-04-08T02:30:28;98333.19;;;18.48;44.08
33163;BME280;29282;45.656;11.302;2023-04-08T02:32:56;98328.50;;;18.49;44.03
33163;BME280;29282;45.656;11.302;2023-04-08T02:35:22;98324.16;;;18.48;44.20
33163;BME280;29282;45.656;11.302;2023-04-08T02:37:48;98323.34;;;18.47;43.87
33163;BME280;29282;45.656;11.302;2023-04-08T02:40:28;98320.59;;;18.47;43.93
33163;BME280;29282;45.656;11.302;2023-04-08T02:42:54;98323.34;;;18.47;43.93
33163;BME280;29282;45.656;11.302;2023-04-08T02:45:20;98330.75;;;18.47;43.83
33163;BME280;29282;45.656;11.302;2023-04-08T02:47:46;98324.63;;;18.50;43.90
33163;BME280;29282;45.656;11.302;2023-04-08T02:50:12;98327.69;;;18.48;44.00
33163;BME280;29282;45.656;11.302;2023-04-08T02:52:37;98318.19;;;18.46;43.85
33163;BME280;29282;45.656;11.302;2023-04-08T02:55:03;98325.28;;;18.47;44.00
33163;BME280;29282;45.656;11.302;2023-04-08T02:57:31;98327.69;;;18.48;43.92
33163;BME280;29282;45.656;11.302;2023-04-08T02:59:56;98329.66;;;18.48;44.08
33163;BME280;29282;45.656;11.302;2023-04-08T03:02:22;98322.53;;;18.47;43.96
33163;BME280;29282;45.656;11.302;2023-04-08T03:04:48;98329.97;;;18.46;43.87
33163;BME280;29282;45.656;11.302;2023-04-08T03:07:13;98329.16;;;18.46;43.79
33163;BME280;29282;45.656;11.302;2023-04-08T03:09:38;98333.84;;;18.45;43.82
33163;BME280;29282;45.656;11.302;2023-04-08T03:12:04;98325.63;;;18.45;44.00
33163;BME280;29282;45.656;11.302;2023-04-08T03:14:30;98322.88;;;18.45;43.77
33163;BME280;29282;45.656;11.302;2023-04-08T03:16:55;98324.81;;;18.45;43.85
33163;BME280;29282;45.656;11.302;2023-04-08T03:19:21;98323.69;;;18.46;43.90
33163;BME280;29282;45.656;11.302;2023-04-08T03:21:46;98323.69;;;18.46;43.87
33163;BME280;29282;45.656;11.302;2023-04-08T03:24:12;98324.47;;;18.46;44.08
33163;BME280;29282;45.656;11.302;2023-04-08T03:26:37;98326.44;;;18.46;43.85
33163;BME280;29282;45.656;11.302;2023-04-08T03:29:03;98322.09;;;18.45;43.88
33163;BME280;29282;45.656;11.302;2023-04-08T03:31:28;98325.28;;;18.47;43.74
33163;BME280;29282;45.656;11.302;2023-04-08T03:33:54;98325.63;;;18.45;43.84
33163;BME280;29282;45.656;11.302;2023-04-08T03:36:19;98329.97;;;18.46;43.62
33163;BME280;29282;45.656;11.302;2023-04-08T03:38:45;98326.44;;;18.46;43.55
33163;BME280;29282;45.656;11.302;2023-04-08T03:41:10;98322.22;;;18.48;43.58
33163;BME280;29282;45.656;11.302;2023-04-08T03:43:36;98334.66;;;18.46;43.70
33163;BME280;29282;45.656;11.302;2023-04-08T03:46:01;98328.03;;;18.47;43.54
33163;BME280;29282;45.656;11.302;2023-04-08T03:48:27;98332.41;;;18.48;43.67
33163;BME280;29282;45.656;11.302;2023-04-08T03:50:52;98334.78;;;18.49;43.58
33163;BME280;29282;45.656;11.302;2023-04-08T03:53:18;98330.75;;;18.47;43.61
33163;BME280;29282;45.656;11.302;2023-04-08T03:55:43;98337.88;;;18.48;43.52
33163;BME280;29282;45.656;11.302;2023-04-08T03:58:09;98339.00;;;18.47;43.45
33163;BME280;29282;45.656;11.302;2023-04-08T04:00:34;98339.78;;;18.47;43.51
33163;BME280;29282;45.656;11.302;2023-04-08T04:03:00;98346.13;;;18.48;43.54
33163;BME280;29282;45.656;11.302;2023-04-08T04:05:26;98345.63;;;18.46;43.47
33163;BME280;29282;45.656;11.302;2023-04-08T04:07:51;98344.47;;;18.47;43.47
33163;BME280;29282;45.656;11.302;2023-04-08T04:10:17;98337.41;;;18.46;43.46
33163;BME280;29282;45.656;11.302;2023-04-08T04:12:43;98346.44;;;18.46;43.51
33163;BME280;29282;45.656;11.302;2023-04-08T04:15:09;98337.41;;;18.46;43.64
33163;BME280;29282;45.656;11.302;2023-04-08T04:17:35;98331.91;;;18.46;43.50
33163;BME280;29282;45.656;11.302;2023-04-08T04:20:03;98338.53;;;18.45;43.58
33163;BME280;29282;45.656;11.302;2023-04-08T04:22:29;98337.41;;;18.46;43.58
33163;BME280;29282;45.656;11.302;2023-04-08T04:24:55;98337.41;;;18.46;43.47
33163;BME280;29282;45.656;11.302;2023-04-08T04:27:20;98339.34;;;18.45;43.64
33163;BME280;29282;45.656;11.302;2023-04-08T04:29:46;98335.81;;;18.45;43.65
33163;BME280;29282;45.656;11.302;2023-04-08T04:32:11;98329.16;;;18.46;43.42
33163;BME280;29282;45.656;11.302;2023-04-08T04:34:37;98331.91;;;18.46;43.58
33163;BME280;29282;45.656;11.302;2023-04-08T04:37:02;98337.75;;;18.44;43.42
33163;BME280;29282;45.656;11.302;2023-04-08T04:39:28;98331.13;;;18.45;43.43
33163;BME280;29282;45.656;11.302;2023-04-08T04:41:53;98333.38;;;18.43;43.67
33163;BME280;29282;45.656;11.302;2023-04-08T04:44:19;98332.25;;;18.44;43.44
33163;BME280;29282;45.656;11.302;2023-04-08T04:46:44;98330.63;;;18.43;43.34
33163;BME280;29282;45.656;11.302;2023-04-08T04:49:10;98333.84;;;18.45;43.67
33163;BME280;29282;45.656;11.302;2023-04-08T04:51:36;98336.13;;;18.43;43.48
33163;BME280;29282;45.656;11.302;2023-04-08T04:54:01;98334.19;;;18.44;43.55
33163;BME280;29282;45.656;11.302;2023-04-08T04:56:27;98339.66;;;18.44;43.44
33163;BME280;29282;45.656;11.302;2023-04-08T04:58:52;98335.81;;;18.45;43.31
33163;BME280;29282;45.656;11.302;2023-04-08T05:01:18;98325.94;;;18.44;43.33
33163;BME280;29282;45.656;11.302;2023-04-08T05:03:44;98334.19;;;18.44;43.29
33163;BME280;29282;45.656;11.302;2023-04-08T05:06:09;98333.06;;;18.45;43.38
33163;BME280;29282;45.656;11.302;2023-04-08T05:08:35;98326.78;;;18.44;43.36
33163;BME280;29282;45.656;11.302;2023-04-08T05:11:01;98333.84;;;18.45;43.35
33163;BME280;29282;45.656;11.302;2023-04-08T05:13:29;98338.53;;;18.45;43.27
33163;BME280;29282;45.656;11.302;2023-04-08T05:15:56;98342.88;;;18.46;43.26
33163;BME280;29282;45.656;11.302;2023-04-08T05:18:21;98343.69;;;18.46;43.25
33163;BME280;29282;45.656;11.302;2023-04-08T05:20:47;98337.41;;;18.46;43.17
33163;BME280;29282;45.656;11.302;2023-04-08T05:23:12;98342.88;;;18.46;43.25
33163;BME280;29282;45.656;11.302;2023-04-08T05:25:38;98340.13;;;18.46;43.20
33163;BME280;29282;45.656;11.302;2023-04-08T05:28:03;98335.44;;;18.46;43.27
33163;BME280;29282;45.656;11.302;2023-04-08T05:30:29;98336.59;;;18.45;43.27
33163;BME280;29282;45.656;11.302;2023-04-08T05:32:55;98346.44;;;18.46;43.25
33163;BME280;29282;45.656;11.302;2023-04-08T05:35:20;98346.78;;;18.45;43.16
33163;BME280;29282;45.656;11.302;2023-04-08T05:37:46;98353.06;;;18.45;43.22
33163;BME280;29282;45.656;11.302;2023-04-08T05:40:11;98350.31;;;18.45;43.20
33163;BME280;29282;45.656;11.302;2023-04-08T05:42:37;98357.41;;;18.46;43.36
33163;BME280;29282;45.656;11.302;2023-04-08T05:45:03;98352.25;;;18.45;43.41
33163;BME280;29282;45.656;11.302;2023-04-08T05:47:29;98351.47;;;18.44;43.15
33163;BME280;29282;45.656;11.302;2023-04-08T05:49:54;98363.22;;;18.45;43.25
33163;BME280;29282;45.656;11.302;2023-04-08T05:52:20;98360.50;;;18.45;43.39
33163;BME280;29282;45.656;11.302;2023-04-08T05:54:45;98360.50;;;18.45;43.38
33163;BME280;29282;45.656;11.302;2023-04-08T05:57:11;98365.19;;;18.44;43.27
33163;BME280;29282;45.656;11.302;2023-04-08T05:59:37;98365.19;;;18.44;43.22
33163;BME280;29282;45.656;11.302;2023-04-08T06:02:02;98369.03;;;18.43;43.29
33163;BME280;29282;45.656;11.302;2023-04-08T06:04:28;98372.13;;;18.42;43.40
33163;BME280;29282;45.656;11.302;2023-04-08T06:06:54;98378.41;;;18.42;43.40
33163;BME280;29282;45.656;11.302;2023-04-08T06:09:24;98374.06;;;18.41;43.48
33163;BME280;29282;45.656;11.302;2023-04-08T06:11:49;98372.44;;;18.40;43.27
33163;BME280;29282;45.656;11.302;2023-04-08T06:14:15;98379.88;;;18.40;43.21
33163;BME280;29282;45.656;11.302;2023-04-08T06:16:41;98376.00;;;18.41;43.51
33163;BME280;29282;45.656;11.302;2023-04-08T06:19:06;98369.69;;;18.40;43.31
33163;BME280;29282;45.656;11.302;2023-04-08T06:21:32;98374.38;;;18.40;43.31
33163;BME280;29282;45.656;11.302;2023-04-08T06:23:57;98377.13;;;18.40;43.46
33163;BME280;29282;45.656;11.302;2023-04-08T06:26:23;98379.06;;;18.39;43.34
33163;BME280;29282;45.656;11.302;2023-04-08T06:28:48;98376.34;;;18.39;43.38
33163;BME280;29282;45.656;11.302;2023-04-08T06:31:14;98379.41;;;18.38;43.31
33163;BME280;29282;45.656;11.302;2023-04-08T06:33:39;98382.63;;;18.40;43.49
33163;BME280;29282;45.656;11.302;2023-04-08T06:36:06;98373.59;;;18.39;43.36
33163;BME280;29282;45.656;11.302;2023-04-08T06:38:32;98378.72;;;18.41;43.42
33163;BME280;29282;45.656;11.302;2023-04-08T06:41:01;98375.94;;;18.49;43.02
33163;BME280;29282;45.656;11.302;2023-04-08T06:43:27;98375.63;;;18.51;43.10
33163;BME280;29282;45.656;11.302;2023-04-08T06:45:53;98374.13;;;18.53;43.05
33163;BME280;29282;45.656;11.302;2023-04-08T06:48:19;98363.59;;;18.64;42.72
33163;BME280;29282;45.656;11.302;2023-04-08T06:50:44;98370.78;;;18.77;42.62
33163;BME280;29282;45.656;11.302;2023-04-08T06:53:10;98371.97;;;18.89;42.40
33163;BME280;29282;45.656;11.302;2023-04-08T06:55:35;98379.00;;;18.98;42.23
33163;BME280;29282;45.656;11.302;2023-04-08T06:58:01;98380.06;;;19.06;42.11
33163;BME280;29282;45.656;11.302;2023-04-08T07:00:27;98372.44;;;19.12;41.98
33163;BME280;29282;45.656;11.302;2023-04-08T07:02:52;98376.56;;;19.18;41.93
33163;BME280;29282;45.656;11.302;2023-04-08T07:05:18;98379.78;;;19.20;41.81
33163;BME280;29282;45.656;11.302;2023-04-08T07:07:43;98376.97;;;19.29;41.70
33163;BME280;29282;45.656;11.302;2023-04-08T07:10:09;98376.16;;;19.28;42.06
33163;BME280;29282;45.656;11.302;2023-04-08T07:12:35;98379.34;;;19.30;41.82
33163;BME280;29282;45.656;11.302;2023-04-08T07:15:00;98388.66;;;19.38;41.71
33163;BME280;29282;45.656;11.302;2023-04-08T07:17:26;98374.59;;;19.39;41.70
33163;BME280;29282;45.656;11.302;2023-04-08T07:19:52;98384.09;;;19.42;41.78
33163;BME280;29282;45.656;11.302;2023-04-08T07:22:17;98384.44;;;19.40;41.73
33163;BME280;29282;45.656;11.302;2023-04-08T07:24:43;98381.81;;;19.44;41.79
33163;BME280;29282;45.656;11.302;2023-04-08T07:27:14;98381.47;;;19.45;41.80
33163;BME280;29282;45.656;11.302;2023-04-08T07:29:40;98380.69;;;19.45;41.62
33163;BME280;29282;45.656;11.302;2023-04-08T07:32:06;98378.25;;;19.43;41.75
33163;BME280;29282;45.656;11.302;2023-04-08T07:34:34;98375.97;;;19.45;41.86
33163;BME280;29282;45.656;11.302;2023-04-08T07:37:01;98377.94;;;19.45;41.80
33163;BME280;29282;45.656;11.302;2023-04-08T07:39:26;98383.44;;;19.45;41.96
33163;BME280;29282;45.656;11.302;2023-04-08T07:41:52;98387.09;;;19.49;41.78
33163;BME280;29282;45.656;11.302;2023-04-08T07:44:18;98389.41;;;19.47;41.81
33163;BME280;29282;45.656;11.302;2023-04-08T07:46:44;98390.50;;;19.46;41.85
33163;BME280;29282;45.656;11.302;2023-04-08T07:49:10;98387.75;;;19.46;42.01
33163;BME280;29282;45.656;11.302;2023-04-08T07:51:36;98392.13;;;19.47;41.97
33163;BME280;29282;45.656;11.302;2023-04-08T07:54:02;98392.13;;;19.47;41.69
33163;BME280;29282;45.656;11.302;2023-04-08T07:56:28;98387.88;;;19.49;41.93
33163;BME280;29282;45.656;11.302;2023-04-08T07:58:53;98398.09;;;19.49;41.88
33163;BME280;29282;45.656;11.302;2023-04-08T08:01:20;98394.19;;;19.50;42.00
33163;BME280;29282;45.656;11.302;2023-04-08T08:03:47;98395.94;;;19.55;41.85
33163;BME280;29282;45.656;11.302;2023-04-08T08:06:13;98392.84;;;19.56;41.75
33163;BME280;29282;45.656;11.302;2023-04-08T08:08:39;98397.66;;;19.59;41.76
33163;BME280;29282;45.656;11.302;2023-04-08T08:11:04;98396.84;;;19.59;41.79
33163;BME280;29282;45.656;11.302;2023-04-08T08:13:30;98393.78;;;19.60;41.77
33163;BME280;29282;45.656;11.302;2023-04-08T08:15:56;98396.19;;;19.62;41.99
33163;BME280;29282;45.656;11.302;2023-04-08T08:18:21;98402.97;;;19.64;41.94
33163;BME280;29282;45.656;11.302;2023-04-08T08:20:47;98394.97;;;19.71;41.79
33163;BME280;29282;45.656;11.302;2023-04-08T08:23:13;98408.47;;;19.77;41.80
33163;BME280;29282;45.656;11.302;2023-04-08T08:25:38;98407.13;;;19.83;41.67
33163;BME280;29282;45.656;11.302;2023-04-08T08:28:04;98405.66;;;19.85;41.78
33163;BME280;29282;45.656;11.302;2023-04-08T08:30:29;98404.16;;;19.88;41.81
33163;BME280;29282;45.656;11.302;2023-04-08T08:32:55;98400.94;;;19.86;41.88
33163;BME280;29282;45.656;11.302;2023-04-08T08:35:23;98402.22;;;19.88;41.78
33163;BME280;29282;45.656;11.302;2023-04-08T08:37:49;98406.56;;;19.89;41.92
33163;BME280;29282;45.656;11.302;2023-04-08T08:40:15;98402.81;;;19.94;41.84
33163;BME280;29282;45.656;11.302;2023-04-08T08:42:41;98407.16;;;19.95;41.66
33163;BME280;29282;45.656;11.302;2023-04-08T08:45:07;98415.41;;;19.95;41.96
33163;BME280;29282;45.656;11.302;2023-04-08T08:47:33;98414.59;;;19.94;41.99
33163;BME280;29282;45.656;11.302;2023-04-08T08:49:58;98422.06;;;19.94;42.01
33163;BME280;29282;45.656;11.302;2023-04-08T08:52:24;98414.25;;;19.96;42.04
33163;BME280;29282;45.656;11.302;2023-04-08T08:54:57;98417.94;;;20.00;41.78
33163;BME280;29282;45.656;11.302;2023-04-08T08:57:23;98425.75;;;20.10;41.55
33163;BME280;29282;45.656;11.302;2023-04-08T08:59:48;98422.44;;;20.17;41.49
33163;BME280;29282;45.656;11.302;2023-04-08T09:02:30;98426.31;;;20.16;41.50
33163;BME280;29282;45.656;11.302;2023-04-08T09:04:58;98427.94;;;20.17;41.76
33163;BME280;29282;45.656;11.302;2023-04-08T09:07:25;98418.63;;;20.22;41.60
33163;BME280;29282;45.656;11.302;2023-04-08T09:09:52;98427.69;;;20.22;41.76
33163;BME280;29282;45.656;11.302;2023-04-08T09:12:18;98424.63;;;20.24;41.81
33163;BME280;29282;45.656;11.302;2023-04-08T09:14:44;98419.13;;;20.24;42.12
33163;BME280;29282;45.656;11.302;2023-04-08T09:17:11;98417.03;;;20.21;42.03
33163;BME280;29282;45.656;11.302;2023-04-08T09:19:37;98424.81;;;20.18;42.30
33163;BME280;29282;45.656;11.302;2023-04-08T09:22:07;98417.47;;;20.23;42.14
33163;BME280;29282;45.656;11.302;2023-04-08T09:24:34;98412.81;;;20.23;42.38
33163;BME280;29282;45.656;11.302;2023-04-08T09:27:02;98411.19;;;20.22;42.59
33163;BME280;29282;45.656;11.302;2023-04-08T09:29:27;98404.19;;;20.25;42.48
33163;BME280;29282;45.656;11.302;2023-04-08T09:31:57;98406.84;;;20.21;42.55
33163;BME280;29282;45.656;11.302;2023-04-08T09:34:24;98415.09;;;20.21;42.60
33163;BME280;29282;45.656;11.302;2023-04-08T09:36:50;98409.13;;;20.19;42.87
33163;BME280;29282;45.656;11.302;2023-04-08T09:39:15;98415.41;;;20.19;42.70
33163;BME280;29282;45.656;11.302;2023-04-08T09:41:42;98407.53;;;20.18;42.71
33163;BME280;29282;45.656;11.302;2023-04-08T09:44:10;98407.53;;;20.18;42.75
33163;BME280;29282;45.656;11.302;2023-04-08T09:49:18;98404.97;;;20.13;43.02
33163;BME280;29282;45.656;11.302;2023-04-08T09:52:10;98404.19;;;20.12;42.94
33163;BME280;29282;45.656;11.302;2023-04-08T09:57:27;98397.31;;;20.06;43.04
33163;BME280;29282;45.656;11.302;2023-04-08T10:00:21;98391.69;;;20.03;43.29
33163;BME280;29282;45.656;11.302;2023-04-08T10:05:30;98393.53;;;19.99;43.18
33163;BME280;29282;45.656;11.302;2023-04-08T10:07:56;98395.94;;;20.00;43.30
33163;BME280;29282;45.656;11.302;2023-04-08T10:10:22;98392.72;;;19.98;43.25
33163;BME280;29282;45.656;11.302;2023-04-08T10:12:48;98398.69;;;20.00;43.36
33163;BME280;29282;45.656;11.302;2023-04-08T10:15:22;98392.72;;;19.98;43.38
33163;BME280;29282;45.656;11.302;2023-04-08T10:17:49;98394.22;;;19.95;43.41
33163;BME280;29282;45.656;11.302;2023-04-08T10:23:04;98399.25;;;19.93;43.43
33163;BME280;29282;45.656;11.302;2023-04-08T10:25:39;98399.25;;;19.93;43.44
33163;BME280;29282;45.656;11.302;2023-04-08T10:33:15;98405.66;;;19.85;43.59
33163;BME280;29282;45.656;11.302;2023-04-08T10:38:29;98400.94;;;19.86;43.55
33163;BME280;29282;45.656;11.302;2023-04-08T10:40:55;98399.34;;;19.85;43.55
33163;BME280;29282;45.656;11.302;2023-04-08T10:43:21;98396.94;;;19.83;43.73
33163;BME280;29282;45.656;11.302;2023-04-08T10:45:48;98406.31;;;19.82;43.55
33163;BME280;29282;45.656;11.302;2023-04-08T10:48:22;98400.03;;;19.82;43.67
33163;BME280;29282;45.656;11.302;2023-04-08T10:50:56;98402.31;;;19.80;43.73
33163;BME280;29282;45.656;11.302;2023-04-08T10:53:28;98399.13;;;19.78;43.65
33163;BME280;29282;45.656;11.302;2023-04-08T10:56:12;98408.97;;;19.79;43.63
33163;BME280;29282;45.656;11.302;2023-04-08T10:58:53;98407.00;;;19.79;43.56
33163;BME280;29282;45.656;11.302;2023-04-08T11:01:23;98407.69;;;19.76;43.72
33163;BME280;29282;45.656;11.302;2023-04-08T11:03:49;98409.63;;;19.76;43.51
33163;BME280;29282;45.656;11.302;2023-04-08T11:06:15;98411.59;;;19.75;43.86
33163;BME280;29282;45.656;11.302;2023-04-08T11:08:44;98406.44;;;19.74;43.61
33163;BME280;29282;45.656;11.302;2023-04-08T11:11:10;98405.28;;;19.75;43.63
33163;BME280;29282;45.656;11.302;2023-04-08T11:13:38;98401.28;;;19.72;43.86
33163;BME280;29282;45.656;11.302;2023-04-08T11:16:06;98400.13;;;19.73;43.69
33163;BME280;29282;45.656;11.302;2023-04-08T11:18:41;98390.28;;;19.72;43.71
33163;BME280;29282;45.656;11.302;2023-04-08T11:21:07;98403.69;;;19.74;43.63
33163;BME280;29282;45.656;11.302;2023-04-08T11:23:33;98392.69;;;19.74;43.67
33163;BME280;29282;45.656;11.302;2023-04-08T11:26:00;98390.38;;;19.76;43.61
33163;BME280;29282;45.656;11.302;2023-04-08T11:28:27;98387.31;;;19.77;43.53
33163;BME280;29282;45.656;11.302;2023-04-08T11:30:53;98396.69;;;19.76;43.72
33163;BME280;29282;45.656;11.302;2023-04-08T11:33:19;98386.06;;;19.75;43.71
33163;BME280;29282;45.656;11.302;2023-04-08T11:35:45;98377.31;;;19.73;43.79
33163;BME280;29282;45.656;11.302;2023-04-08T11:38:11;98379.28;;;19.72;43.83
33163;BME280;29282;45.656;11.302;2023-04-08T11:40:36;98380.44;;;19.71;43.65
33163;BME280;29282;45.656;11.302;2023-04-08T11:43:09;98379.63;;;19.70;43.54
33163;BME280;29282;45.656;11.302;2023-04-08T11:45:39;98388.00;;;19.74;43.68
33163;BME280;29282;45.656;11.302;2023-04-08T11:48:09;98381.00;;;19.77;43.59
33163;BME280;29282;45.656;11.302;2023-04-08T11:50:35;98379.19;;;19.81;43.32
33163;BME280;29282;45.656;11.302;2023-04-08T11:53:01;98376.09;;;19.82;43.35
33163;BME280;29282;45.656;11.302;2023-04-08T11:55:28;98382.75;;;19.81;43.36
33163;BME280;29282;45.656;11.302;2023-04-08T11:57:55;98375.75;;;19.84;43.29
33163;BME280;29282;45.656;11.302;2023-04-08T12:00:22;98375.41;;;19.85;43.46
33163;BME280;29282;45.656;11.302;2023-04-08T12:02:48;98370.25;;;19.84;43.87
33163;BME280;29282;45.656;11.302;2023-04-08T12:05:16;98373.00;;;19.84;43.84
33163;BME280;29282;45.656;11.302;2023-04-08T12:07:42;98373.44;;;19.86;43.96
33163;BME280;29282;45.656;11.302;2023-04-08T12:10:11;98358.78;;;19.82;43.98
33163;BME280;29282;45.656;11.302;2023-04-08T12:12:37;98363.13;;;19.83;44.28
33163;BME280;29282;45.656;11.302;2023-04-08T12:15:03;98357.19;;;19.81;44.37
33163;BME280;29282;45.656;11.302;2023-04-08T12:17:29;98353.28;;;19.82;44.43
33163;BME280;29282;45.656;11.302;2023-04-08T12:19:55;98355.34;;;19.85;44.85
33163;BME280;29282;45.656;11.302;2023-04-08T12:22:21;98349.88;;;19.85;45.04
33163;BME280;29282;45.656;11.302;2023-04-08T12:24:46;98346.63;;;19.83;45.34
33163;BME280;29282;45.656;11.302;2023-04-08T12:27:12;98345.72;;;19.79;45.32
33163;BME280;29282;45.656;11.302;2023-04-08T12:29:37;98349.75;;;19.81;45.44
33163;BME280;29282;45.656;11.302;2023-04-08T12:32:04;98347.78;;;19.82;45.44
33163;BME280;29282;45.656;11.302;2023-04-08T12:34:30;98356.84;;;19.82;45.38
33163;BME280;29282;45.656;11.302;2023-04-08T12:36:55;98333.94;;;19.78;45.65
33163;BME280;29282;45.656;11.302;2023-04-08T12:39:21;98344.56;;;19.80;45.67
33163;BME280;29282;45.656;11.302;2023-04-08T12:41:47;98350.06;;;19.80;45.79
33163;BME280;29282;45.656;11.302;2023-04-08T12:44:12;98352.03;;;19.79;46.01
33163;BME280;29282;45.656;11.302;2023-04-08T12:46:38;98353.50;;;19.77;46.03
33163;BME280;29282;45.656;11.302;2023-04-08T12:49:03;98351.22;;;19.79;46.06
33163;BME280;29282;45.656;11.302;2023-04-08T12:51:29;98350.44;;;19.78;46.06
33163;BME280;29282;45.656;11.302;2023-04-08T12:53:55;98350.75;;;19.77;45.94
33163;BME280;29282;45.656;11.302;2023-04-08T12:56:21;98349.50;;;19.74;46.04
33163;BME280;29282;45.656;11.302;2023-04-08T12:58:46;98347.56;;;19.75;46.12
33163;BME280;29282;45.656;11.302;2023-04-08T13:01:12;98342.50;;;19.77;46.18
33163;BME280;29282;45.656;11.302;2023-04-08T13:03:38;98342.88;;;19.75;46.21
33163;BME280;29282;45.656;11.302;2023-04-08T13:06:03;98339.63;;;19.73;46.16
33163;BME280;29282;45.656;11.302;2023-04-08T13:08:29;98341.59;;;19.73;46.16
33163;BME280;29282;45.656;11.302;2023-04-08T13:10:54;98339.31;;;19.75;45.93